Time;durP1;ratioP1;P1;durP2;ratioP2;P2;SDS_P1;SDS_P2;PMS_P1;PMS_P2;Temp;Humidity;BMP_temperature;BMP_pressure;BME280_temperature;BME280_humidity;BME280_pressure;Samples;Min_cycle;Max_cycle;Signal;HPM_P1;HPM_P2
2022/04/11 00:00:06;;;;;;;3.72;2.17;;;;;;;-2.22;100.00;93268.22;2098133;28;20016;-85
2022/04/11 00:01:06;;;;;;;4.18;2.10;;;;;;;-2.20;100.00;93267.88;2098901;28;20051;-84
2022/04/11 00:02:07;;;;;;;5.38;2.25;;;;;;;-2.23;100.00;93260.69;2098568;28;20020;-85
2022/04/11 00:03:08;;;;;;;4.03;2.53;;;;;;;-2.22;100.00;93262.22;2098473;28;20020;-85
2022/04/11 00:04:09;;;;;;;2.95;2.17;;;;;;;-2.23;100.00;93261.44;2107453;28;20039;-86
2022/04/11 00:05:10;;;;;;;3.05;2.20;;;;;;;-2.25;100.00;93266.25;2106793;28;20058;-86
2022/04/11 00:06:11;;;;;;;3.92;2.42;;;;;;;-2.25;100.00;93258.38;2106691;28;20028;-85
2022/04/11 00:07:12;;;;;;;2.45;2.20;;;;;;;-2.20;100.00;93258.16;2098517;28;20051;-87
2022/04/11 00:08:13;;;;;;;4.13;2.50;;;;;;;-2.22;100.00;93260.34;2098414;28;20054;-84
2022/04/11 00:09:14;;;;;;;3.95;2.20;;;;;;;-2.22;100.00;93260.34;2098475;28;20112;-82
2022/04/11 00:10:15;;;;;;;3.33;2.40;;;;;;;-2.09;100.00;93250.59;2096080;28;20095;-83
2022/04/11 00:11:16;;;;;;;3.13;2.30;;;;;;;-2.10;100.00;93252.47;2098515;28;20021;-83
2022/04/11 00:12:17;;;;;;;2.92;2.08;;;;;;;-2.00;100.00;93250.47;2097943;28;20099;-86
2022/04/11 00:13:18;;;;;;;3.92;2.47;;;;;;;-2.08;100.00;93247.66;2098529;28;20124;-85
2022/04/11 00:14:19;;;;;;;2.67;2.17;;;;;;;-2.17;100.00;93249.66;2090371;28;20017;-85
2022/04/11 00:15:20;;;;;;;4.53;2.55;;;;;;;-2.11;100.00;93250.16;2090274;28;20517;-84
2022/04/11 00:16:21;;;;;;;3.95;2.50;;;;;;;-2.17;100.00;93241.03;2090183;28;20710;-83
2022/04/11 00:17:23;;;;;;;4.30;2.38;;;;;;;-2.21;100.00;93238.31;2090351;28;20024;-85
2022/04/11 00:18:24;;;;;;;2.78;2.30;;;;;;;-2.23;100.00;93240.50;2106987;28;20099;-83
2022/04/11 00:19:25;;;;;;;3.80;2.10;;;;;;;-2.29;100.00;93237.34;2115160;28;20086;-84
2022/04/11 00:20:26;;;;;;;4.75;2.40;;;;;;;-2.23;100.00;93242.38;2106675;28;20074;-84
2022/04/11 00:21:27;;;;;;;2.95;2.60;;;;;;;-2.27;100.00;93244.88;2098141;28;20111;-85
2022/04/11 00:22:28;;;;;;;3.65;1.95;;;;;;;-2.22;100.00;93234.19;2101937;28;20698;-83
2022/04/11 00:23:29;;;;;;;5.85;2.40;;;;;;;-2.29;100.00;93239.19;2103707;28;20032;-83
2022/04/11 00:24:30;;;;;;;5.40;2.20;;;;;;;-2.12;100.00;93241.56;2106097;28;20406;-82
2022/04/11 00:25:31;;;;;;;4.70;2.83;;;;;;;-2.13;100.00;93239.28;2106664;28;20077;-84
2022/04/11 00:26:32;;;;;;;2.40;2.20;;;;;;;-2.15;100.00;93238.81;2098489;28;20428;-86
2022/04/11 00:27:33;;;;;;;2.47;2.28;;;;;;;-2.18;100.00;93237.66;2098355;28;20028;-81
2022/04/11 00:28:34;;;;;;;3.58;2.22;;;;;;;-2.13;100.00;93236.66;2106722;28;20027;-84
2022/04/11 00:29:35;;;;;;;2.47;2.28;;;;;;;-2.14;100.00;93230.66;2106873;28;20035;-84
2022/04/11 00:30:36;;;;;;;3.47;2.40;;;;;;;-2.19;100.00;93238.00;2106749;28;20061;-81
2022/04/11 00:31:37;;;;;;;3.03;2.30;;;;;;;-2.22;100.00;93233.41;2106596;27;20016;-83
2022/04/11 00:32:40;;;;;;;5.63;2.47;;;;;;;-2.17;100.00;93236.56;2106695;28;20043;-83
2022/04/11 00:33:41;;;;;;;2.85;2.35;;;;;;;-2.16;100.00;93238.06;2106694;28;20020;-84
2022/04/11 00:34:42;;;;;;;3.35;2.20;;;;;;;-2.25;100.00;93229.59;2106702;28;20111;-83
2022/04/11 00:35:43;;;;;;;2.72;2.13;;;;;;;-2.28;100.00;93236.28;2106737;28;20027;-84
2022/04/11 00:36:44;;;;;;;4.88;2.30;;;;;;;-2.41;100.00;93232.16;2097750;28;20137;-85
2022/04/11 00:37:44;;;;;;;2.40;2.03;;;;;;;-2.37;100.00;93227.00;2106567;28;20028;-85
2022/04/11 00:38:45;;;;;;;2.70;2.30;;;;;;;-2.33;100.00;93227.88;2106547;28;20051;-82
2022/04/11 00:39:47;;;;;;;4.22;2.22;;;;;;;-2.32;100.00;93224.19;2090269;28;20063;-84
2022/04/11 00:40:48;;;;;;;5.85;2.30;;;;;;;-2.17;100.00;93223.47;2108926;27;20050;-82
2022/04/11 00:41:49;;;;;;;3.45;2.13;;;;;;;-2.19;100.00;93222.28;2114774;28;20031;-82
2022/04/11 00:42:50;;;;;;;3.92;2.45;;;;;;;-2.31;100.00;93223.06;2106748;28;20024;-84
2022/04/11 00:43:51;;;;;;;3.42;2.25;;;;;;;-2.30;100.00;93227.22;2115023;28;20028;-82
2022/04/11 00:44:52;;;;;;;4.90;2.60;;;;;;;-2.32;100.00;93222.31;2106490;28;20031;-85
2022/04/11 00:45:53;;;;;;;3.80;2.55;;;;;;;-2.36;100.00;93226.69;2106488;28;20054;-82
2022/04/11 00:46:54;;;;;;;3.53;2.40;;;;;;;-2.26;100.00;93216.84;2114924;28;20024;-82
2022/04/11 00:47:55;;;;;;;3.08;2.33;;;;;;;-2.29;100.00;93213.03;2114438;28;20027;-85
2022/04/11 00:48:56;;;;;;;4.45;2.42;;;;;;;-2.28;100.00;93214.56;2106629;28;20020;-81
2022/04/11 00:50:15;;;;;;;3.92;2.30;;;;;;;-2.26;100.00;93217.59;2106481;28;20373;-82
2022/04/11 00:51:21;;;;;;;3.03;2.25;;;;;;;-2.30;100.00;93214.13;2103058;28;20025;-84
2022/04/11 00:52:22;;;;;;;3.33;2.22;;;;;;;-2.25;100.00;93213.88;2106891;28;20016;-84
2022/04/11 00:53:24;;;;;;;3.95;2.22;;;;;;;-2.16;100.00;93204.03;2106357;28;20400;-82
2022/04/11 00:54:29;;;;;;;2.47;2.17;;;;;;;-2.18;100.00;93203.63;2098222;28;20033;-82
2022/04/11 00:55:30;;;;;;;2.88;2.25;;;;;;;-2.10;100.00;93210.56;2091088;28;20028;-84
2022/04/11 00:56:35;;;;;;;3.45;2.50;;;;;;;-2.14;100.00;93206.34;2089940;28;20116;-85
2022/04/11 00:57:39;;;;;;;3.90;2.58;;;;;;;-2.18;100.00;93213.34;2107040;28;20540;-83
2022/04/11 00:58:40;;;;;;;4.88;2.75;;;;;;;-2.21;100.00;93204.28;2106937;28;20028;-83
2022/04/11 00:59:41;;;;;;;3.00;2.28;;;;;;;-2.29;100.00;93203.31;2106585;28;20094;-82
2022/04/11 01:00:42;;;;;;;3.55;2.08;;;;;;;-2.12;100.00;93210.13;2097783;28;20523;-82
2022/04/11 01:01:43;;;;;;;2.53;2.05;;;;;;;-2.17;100.00;93207.75;2092768;28;20025;-83
2022/04/11 01:02:44;;;;;;;4.13;2.60;;;;;;;-2.12;100.00;93210.13;2106341;28;20052;-82
2022/04/11 01:03:46;;;;;;;4.53;2.35;;;;;;;-2.19;100.00;93209.97;2106552;28;20016;-82
2022/04/11 01:04:47;;;;;;;4.60;2.85;;;;;;;-2.23;100.00;93209.09;2097907;28;20436;-85
2022/04/11 01:05:48;;;;;;;2.97;2.30;;;;;;;-2.19;100.00;93207.34;2106348;28;20035;-83
2022/04/11 01:06:54;;;;;;;3.72;2.38;;;;;;;-2.19;100.00;93212.56;2114678;28;20512;-85
2022/04/11 01:08:03;;;;;;;3.58;2.42;;;;;;;-2.19;100.00;93206.56;2114623;28;20034;-85
2022/04/11 01:09:04;;;;;;;2.83;2.30;;;;;;;-2.25;100.00;93205.28;2100203;28;20021;-85
2022/04/11 01:10:06;;;;;;;3.97;2.45;;;;;;;-2.37;100.00;93203.44;2106307;28;20503;-85
2022/04/11 01:11:07;;;;;;;3.17;2.38;;;;;;;-2.25;100.00;93205.28;2090022;28;20048;-83
2022/04/11 01:12:08;;;;;;;2.53;2.33;;;;;;;-2.17;100.00;93202.50;2097218;28;20582;-85
2022/04/11 01:13:09;;;;;;;3.85;2.40;;;;;;;-2.09;100.00;93208.72;2108372;28;20031;-83
2022/04/11 01:14:10;;;;;;;2.75;2.42;;;;;;;-2.18;100.00;93206.22;2106308;28;20040;-84
2022/04/11 01:15:11;;;;;;;2.85;2.55;;;;;;;-2.23;100.00;93201.25;2097949;28;20020;-81
2022/04/11 01:16:12;;;;;;;2.40;2.20;;;;;;;-2.17;100.00;93196.53;2106239;28;20054;-82
2022/04/11 01:17:13;;;;;;;3.00;2.10;;;;;;;-2.07;100.00;93199.41;2097838;28;20071;-83
2022/04/11 01:18:21;;;;;;;2.90;2.45;;;;;;;-2.06;100.00;93197.59;2097846;28;20020;-82
2022/04/11 01:19:22;;;;;;;3.75;2.30;;;;;;;-2.20;100.00;93190.09;2098921;28;20020;-83
2022/04/11 01:20:23;;;;;;;3.90;2.40;;;;;;;-2.22;100.00;93194.16;2100698;28;20028;-81
2022/04/11 01:21:27;;;;;;;5.13;2.50;;;;;;;-2.12;100.00;93186.56;2106091;28;20023;-83
2022/04/11 01:22:28;;;;;;;3.05;2.30;;;;;;;-2.15;100.00;93189.88;2098814;28;20020;-84
2022/04/11 01:23:29;;;;;;;5.78;2.72;;;;;;;-2.12;100.00;93177.94;2114711;27;20027;-85
2022/04/11 01:24:32;;;;;;;3.67;2.30;;;;;;;-2.20;100.00;93187.47;2122763;27;20072;-83
2022/04/11 01:25:33;;;;;;;3.63;2.40;;;;;;;-2.24;100.00;93183.22;2106370;28;20031;-81
2022/04/11 01:26:36;;;;;;;2.70;2.45;;;;;;;-2.10;100.00;93178.41;2106188;28;20024;-82
2022/04/11 01:27:38;;;;;;;3.15;2.50;;;;;;;-2.10;100.00;93189.63;2106151;28;20024;-85
2022/04/11 01:28:39;;;;;;;3.22;2.40;;;;;;;-2.20;100.00;93174.38;2097990;28;20112;-82
2022/04/11 01:29:40;;;;;;;2.40;2.20;;;;;;;-2.06;100.00;93174.00;2106191;28;20463;-84
2022/04/11 01:30:41;;;;;;;3.17;2.20;;;;;;;-2.14;100.00;93177.53;2097757;28;20027;-86
2022/04/11 01:31:42;;;;;;;3.13;2.55;;;;;;;-2.24;100.00;93178.75;2097808;28;20612;-85
2022/04/11 01:32:43;;;;;;;3.58;2.47;;;;;;;-2.28;100.00;93172.69;2106288;28;20460;-83
2022/04/11 01:33:44;;;;;;;3.08;2.17;;;;;;;-2.32;100.00;93172.59;2105921;28;20069;-82
2022/04/11 01:34:45;;;;;;;2.30;2.10;;;;;;;-2.20;100.00;93182.22;2105950;28;20145;-84
2022/04/11 01:35:53;;;;;;;2.55;2.30;;;;;;;-2.23;100.00;93188.16;2105735;28;20416;-83
2022/04/11 01:37:00;;;;;;;2.75;2.05;;;;;;;-2.28;100.00;93188.41;2106775;28;20040;-83
2022/04/11 01:38:08;;;;;;;4.70;2.38;;;;;;;-2.26;100.00;93180.97;2098632;28;20016;-81
2022/04/11 01:39:19;;;;;;;2.60;2.10;;;;;;;-2.30;100.00;93185.31;2091370;28;20064;-83
2022/04/11 01:40:20;;;;;;;2.75;2.50;;;;;;;-2.25;100.00;93182.47;2101639;28;20021;-84
2022/04/11 01:41:21;;;;;;;2.97;2.35;;;;;;;-2.27;100.00;93179.44;2097570;28;20867;-83
2022/04/11 01:42:22;;;;;;;3.05;2.60;;;;;;;-2.25;100.00;93179.84;2089506;28;20028;-82
2022/04/11 01:43:24;;;;;;;5.25;2.25;;;;;;;-2.31;100.00;93181.19;2097860;28;20048;-84
2022/04/11 01:44:25;;;;;;;2.40;2.20;;;;;;;-2.24;100.00;93175.38;2098005;28;20066;-84
2022/04/11 01:45:26;;;;;;;3.05;2.50;;;;;;;-2.27;100.00;93176.81;2105439;28;20020;-82
2022/04/11 01:46:27;;;;;;;2.85;2.30;;;;;;;-2.14;100.00;93175.69;2097841;28;20024;-84
2022/04/11 01:47:28;;;;;;;2.78;2.30;;;;;;;-2.19;100.00;93168.06;2106221;28;20023;-85
2022/04/11 01:48:29;;;;;;;3.85;2.35;;;;;;;-2.25;100.00;93171.25;2114031;28;20061;-82
2022/04/11 01:49:30;;;;;;;3.45;2.42;;;;;;;-2.23;100.00;93174.31;2097657;28;20032;-82
2022/04/11 01:50:31;;;;;;;2.10;2.00;;;;;;;-2.12;100.00;93168.22;2097732;28;20381;-85
2022/04/11 01:51:32;;;;;;;2.63;2.42;;;;;;;-2.17;100.00;93171.09;2097478;28;20062;-84
2022/04/11 01:52:33;;;;;;;4.70;2.58;;;;;;;-2.14;100.00;93167.06;2097518;28;20032;-82
2022/04/11 01:53:34;;;;;;;3.50;2.42;;;;;;;-2.14;100.00;93172.31;2097696;28;20032;-85
2022/04/11 01:54:35;;;;;;;2.58;2.38;;;;;;;-2.23;100.00;93167.22;2097675;28;20107;-84
2022/04/11 01:55:37;;;;;;;3.10;2.47;;;;;;;-2.25;100.00;93172.00;2097678;28;20021;-84
2022/04/11 01:56:38;;;;;;;2.63;2.38;;;;;;;-2.24;100.00;93178.00;2104487;28;20024;-86
2022/04/11 01:57:39;;;;;;;3.63;2.40;;;;;;;-2.24;100.00;93168.28;2113325;28;20030;-82
2022/04/11 01:58:40;;;;;;;4.07;2.20;;;;;;;-2.23;100.00;93163.84;2105064;28;20030;-83
2022/04/11 01:59:41;;;;;;;2.78;2.20;;;;;;;-2.19;100.00;93167.31;2092309;28;20032;-84
2022/04/11 02:00:43;;;;;;;4.85;2.50;;;;;;;-2.21;100.00;93165.00;2096723;28;20024;-84
2022/04/11 02:01:44;;;;;;;3.17;2.38;;;;;;;-2.21;100.00;93166.88;2097401;28;20020;-82
2022/04/11 02:02:44;;;;;;;3.17;2.20;;;;;;;-2.22;100.00;93162.72;2089383;28;20044;-84
2022/04/11 02:03:45;;;;;;;3.17;2.22;;;;;;;-2.19;100.00;93162.81;2099117;28;20017;-85
2022/04/11 02:04:47;;;;;;;2.88;2.30;;;;;;;-2.10;100.00;93162.69;2106049;28;20092;-84
2022/04/11 02:05:48;;;;;;;2.45;2.10;;;;;;;-2.11;100.00;93159.31;2106023;28;20020;-83
2022/04/11 02:06:49;;;;;;;3.72;2.33;;;;;;;-2.09;100.00;93158.97;2105847;28;20024;-83
2022/04/11 02:07:50;;;;;;;2.70;2.13;;;;;;;-2.10;100.00;93160.81;2089332;28;20529;-83
2022/04/11 02:08:51;;;;;;;2.78;2.35;;;;;;;-2.21;100.00;93153.78;2097575;28;20016;-83
2022/04/11 02:09:52;;;;;;;3.80;2.25;;;;;;;-2.05;100.00;93157.97;2096022;28;20080;-83
2022/04/11 02:12:36;;;;;;;8.10;2.10;;;;;;;-2.15;100.00;93147.19;2139047;27;20186;-84
2022/04/11 02:13:37;;;;;;;2.38;1.98;;;;;;;-2.17;100.00;93144.16;2121757;28;20027;-84
2022/04/11 02:14:38;;;;;;;3.47;2.78;;;;;;;-2.21;100.00;93149.28;2105018;28;20078;-82
2022/04/11 02:15:39;;;;;;;3.53;2.45;;;;;;;-2.26;100.00;93141.69;2113368;28;20026;-82
2022/04/11 02:16:40;;;;;;;4.90;2.50;;;;;;;-2.15;100.00;93140.13;2104802;28;20059;-84
2022/04/11 02:17:41;;;;;;;3.00;2.22;;;;;;;-2.23;100.00;93137.66;2104812;28;20024;-85
2022/04/11 02:18:42;;;;;;;3.53;2.47;;;;;;;-2.24;100.00;93134.25;2113140;28;20020;-81
2022/04/11 02:19:42;;;;;;;3.00;2.50;;;;;;;-2.27;100.00;93129.69;2113149;28;20030;-83
2022/04/11 02:20:44;;;;;;;3.42;2.30;;;;;;;-2.25;100.00;93132.72;2104921;28;20075;-82
2022/04/11 02:21:48;;;;;;;2.15;1.95;;;;;;;-2.29;100.00;93129.25;2113987;27;20027;-83
2022/04/11 02:22:59;;;;;;;4.28;2.60;;;;;;;-2.23;100.00;93129.81;2121563;28;20110;-84
2022/04/11 02:24:00;;;;;;;3.25;2.50;;;;;;;-2.26;100.00;93122.59;2114071;28;20024;-83
2022/04/11 02:25:01;;;;;;;2.60;2.38;;;;;;;-2.28;100.00;93121.09;2104664;28;20023;-83
2022/04/11 02:26:02;;;;;;;5.68;2.22;;;;;;;-2.21;100.00;93127.59;2104872;28;20431;-81
2022/04/11 02:27:04;;;;;;;3.30;2.15;;;;;;;-2.28;100.00;93117.72;2104884;28;20024;-81
2022/04/11 02:28:05;;;;;;;2.72;2.10;;;;;;;-2.34;100.00;93121.66;2104624;28;20020;-83
2022/04/11 02:29:06;;;;;;;4.10;2.75;;;;;;;-2.34;100.00;93116.41;2096463;28;20031;-83
2022/04/11 02:30:08;;;;;;;3.88;2.28;;;;;;;-2.30;100.00;93117.28;2104660;28;20031;-83
2022/04/11 02:31:09;;;;;;;3.67;2.30;;;;;;;-2.20;100.00;93121.25;2096682;28;20024;-84
2022/04/11 02:32:10;;;;;;;3.65;2.20;;;;;;;-2.01;100.00;93110.91;2096233;28;20417;-84
2022/04/11 02:33:11;;;;;;;4.47;2.40;;;;;;;-1.95;100.00;93117.41;2105816;28;20028;-84
2022/04/11 02:34:12;;;;;;;2.38;2.17;;;;;;;-2.05;100.00;93110.81;2104609;28;20029;-83
2022/04/11 02:35:13;;;;;;;2.45;2.20;;;;;;;-2.15;100.00;93116.56;2104702;28;20462;-83
2022/04/11 02:36:14;;;;;;;3.75;2.13;;;;;;;-2.15;100.00;93119.19;2121095;27;20491;-83
2022/04/11 02:37:15;;;;;;;2.60;2.15;;;;;;;-2.19;100.00;93107.09;2121596;28;20023;-83
2022/04/11 02:38:16;;;;;;;3.78;2.50;;;;;;;-2.24;100.00;93102.06;2104500;28;20035;-80
2022/04/11 02:39:17;;;;;;;4.57;2.45;;;;;;;-2.20;100.00;93113.41;2104739;28;20028;-82
2022/04/11 02:40:18;;;;;;;2.28;2.08;;;;;;;-2.22;100.00;93103.28;2104737;28;20058;-83
2022/04/11 02:41:20;;;;;;;4.00;2.50;;;;;;;-2.25;100.00;93109.16;2104716;28;20020;-84
2022/04/11 02:42:25;;;;;;;2.88;2.45;;;;;;;-2.29;100.00;93100.47;2105018;28;20808;-85
2022/04/11 02:43:26;;;;;;;3.03;2.30;;;;;;;-2.24;100.00;93105.44;2105946;28;20020;-84
2022/04/11 02:44:28;;;;;;;3.22;2.22;;;;;;;-2.22;100.00;93102.50;2104630;28;20470;-82
2022/04/11 02:45:28;;;;;;;2.28;2.10;;;;;;;-2.19;100.00;93101.84;2104809;28;20027;-85
2022/04/11 02:46:29;;;;;;;5.68;2.78;;;;;;;-2.26;100.00;93094.56;2096256;28;20482;-82
2022/04/11 02:47:30;;;;;;;4.18;2.47;;;;;;;-2.28;100.00;93092.28;2108734;28;20419;-82
2022/04/11 02:48:31;;;;;;;4.55;2.63;;;;;;;-2.32;100.00;93094.06;2104163;28;20562;-82
2022/04/11 02:49:32;;;;;;;4.13;2.60;;;;;;;-2.28;100.00;93091.53;2104772;28;20021;-81
2022/04/11 02:50:33;;;;;;;2.72;2.20;;;;;;;-2.22;100.00;93087.56;2104710;28;20054;-83
2022/04/11 02:51:34;;;;;;;2.42;2.22;;;;;;;-2.19;100.00;93086.91;2112697;28;20106;-82
2022/04/11 02:52:35;;;;;;;3.00;2.35;;;;;;;-2.25;100.00;93087.47;2112901;28;20534;-84
2022/04/11 02:53:36;;;;;;;4.18;3.05;;;;;;;-2.12;100.00;93081.06;2121583;27;20391;-84
2022/04/11 02:54:38;;;;;;;2.88;2.30;;;;;;;-2.00;100.00;93085.47;2113054;28;20020;-81
2022/04/11 02:55:39;;;;;;;3.80;2.33;;;;;;;-2.15;100.00;93082.53;2113387;27;20020;-84
2022/04/11 02:56:40;;;;;;;3.25;2.40;;;;;;;-2.16;100.00;93080.97;2112994;28;20016;-83
2022/04/11 02:57:41;;;;;;;3.30;2.47;;;;;;;-2.28;100.00;93089.69;2104512;28;20032;-83
2022/04/11 02:58:42;;;;;;;2.45;2.22;;;;;;;-2.34;100.00;93079.78;2104447;28;20035;-83
2022/04/11 02:59:43;;;;;;;2.30;2.10;;;;;;;-2.39;100.00;93078.16;2096034;28;20107;-83
2022/04/11 03:00:44;;;;;;;4.95;2.22;;;;;;;-2.39;100.00;93078.16;2095800;28;20029;-86
2022/04/11 03:01:51;;;;;;;4.60;3.20;;;;;;;-2.04;100.00;93075.66;2096308;28;20047;-82
2022/04/11 03:02:52;;;;;;;3.67;2.05;;;;;;;-2.24;100.00;93079.28;2106318;28;20115;-85
2022/04/11 03:03:53;;;;;;;5.72;2.28;;;;;;;-2.14;100.00;93072.81;2104550;28;20024;-84
2022/04/11 03:04:54;;;;;;;5.63;2.60;;;;;;;-2.01;100.00;93070.88;2104712;28;20055;-83
2022/04/11 03:05:55;;;;;;;3.90;2.45;;;;;;;-2.20;100.00;93072.28;2087948;28;20037;-84
2022/04/11 03:06:56;;;;;;;3.55;2.38;;;;;;;-2.30;100.00;93072.78;2096117;28;20021;-83
2022/04/11 03:07:57;;;;;;;4.53;2.63;;;;;;;-2.35;100.00;93073.78;2096057;28;20083;-83
2022/04/11 03:08:59;;;;;;;3.28;2.20;;;;;;;-2.35;100.00;93065.16;2096056;28;20032;-83
2022/04/11 03:10:00;;;;;;;2.88;2.20;;;;;;;-2.38;100.00;93057.97;2104496;28;20403;-85
2022/04/11 03:11:01;;;;;;;4.10;2.58;;;;;;;-2.38;100.00;93065.84;2096136;28;20029;-83
2022/04/11 03:12:03;;;;;;;3.05;2.45;;;;;;;-2.37;100.00;93059.50;2103545;28;20040;-84
2022/04/11 03:13:04;;;;;;;2.72;2.42;;;;;;;-2.21;100.00;93056.91;2108809;28;20586;-84
2022/04/11 03:14:05;;;;;;;6.10;2.38;;;;;;;-2.28;100.00;93063.50;2112933;28;20023;-83
2022/04/11 03:15:07;;;;;;;2.53;2.28;;;;;;;-2.37;100.00;93055.03;2104510;28;20070;-82
2022/04/11 03:16:08;;;;;;;4.32;2.60;;;;;;;-2.42;100.00;93057.13;2105107;28;20366;-83
2022/04/11 03:17:09;;;;;;;2.67;2.35;;;;;;;-2.39;100.00;93056.47;2104312;28;20032;-84
2022/04/11 03:18:10;;;;;;;3.80;2.42;;;;;;;-2.42;100.00;93054.50;2096191;28;20031;-84
2022/04/11 03:19:11;;;;;;;3.63;2.40;;;;;;;-2.37;100.00;93060.28;2104308;28;20027;-85
2022/04/11 03:20:12;;;;;;;2.58;2.38;;;;;;;-2.35;100.00;93059.94;2112691;28;20019;-85
2022/04/11 03:21:13;;;;;;;3.03;2.60;;;;;;;-2.31;100.00;93052.94;2097203;28;20028;-85
2022/04/11 03:22:14;;;;;;;2.90;2.30;;;;;;;-2.43;100.00;93045.16;2104336;28;20024;-84
2022/04/11 03:23:16;;;;;;;2.92;2.30;;;;;;;-2.34;100.00;93048.38;2103164;28;20161;-84
2022/04/11 03:24:17;;;;;;;2.80;2.20;;;;;;;-2.41;100.00;93048.19;2097349;28;20016;-81
2022/04/11 03:25:18;;;;;;;2.83;2.47;;;;;;;-2.46;100.00;93049.19;2090062;28;20517;-82
2022/04/11 03:26:19;;;;;;;2.92;2.28;;;;;;;-2.53;100.00;93044.53;2098054;28;20021;-85
2022/04/11 03:27:20;;;;;;;5.25;2.33;;;;;;;-2.45;100.00;93044.72;2098085;28;20111;-84
2022/04/11 03:28:21;;;;;;;4.30;2.47;;;;;;;-2.48;100.00;93043.53;2098004;28;20059;-84
2022/04/11 03:29:22;;;;;;;5.60;2.53;;;;;;;-2.45;100.00;93042.13;2098785;28;20726;-82
2022/04/11 03:30:23;;;;;;;3.60;2.50;;;;;;;-2.45;100.00;93040.25;2098806;28;20035;-82
2022/04/11 03:31:24;;;;;;;3.83;2.28;;;;;;;-2.47;100.00;93042.44;2098638;28;20480;-83
2022/04/11 03:32:24;;;;;;;4.28;2.38;;;;;;;-2.29;100.00;93046.25;2115337;28;20073;-84
2022/04/11 03:33:25;;;;;;;3.33;2.30;;;;;;;-2.25;100.00;93041.09;2106946;28;20023;-84
2022/04/11 03:34:26;;;;;;;4.07;2.83;;;;;;;-2.47;100.00;93039.81;2106880;28;20024;-83
2022/04/11 03:35:27;;;;;;;3.03;2.58;;;;;;;-2.54;100.00;93032.56;2098629;28;20116;-82
2022/04/11 03:36:28;;;;;;;3.92;2.80;;;;;;;-2.45;100.00;93035.03;2098201;28;20381;-85
2022/04/11 03:37:30;;;;;;;4.40;2.75;;;;;;;-2.48;100.00;93040.91;2106871;28;20024;-83
2022/04/11 03:38:31;;;;;;;3.03;2.42;;;;;;;-2.57;100.00;93035.06;2098619;28;20021;-84
2022/04/11 03:39:32;;;;;;;2.55;2.25;;;;;;;-2.53;100.00;93035.94;2098597;28;20071;-82
2022/04/11 03:40:33;;;;;;;3.88;2.67;;;;;;;-2.55;100.00;93035.50;2106950;28;20499;-85
2022/04/11 03:41:34;;;;;;;6.85;2.58;;;;;;;-2.42;100.00;93036.94;2098471;28;20040;-82
2022/04/11 03:42:50;;;;;;;2.92;2.63;;;;;;;-2.54;100.00;93042.28;2082129;28;20052;-84
2022/04/11 03:43:51;;;;;;;3.60;2.33;;;;;;;-2.60;100.00;93039.13;2100707;28;20465;-84
2022/04/11 03:44:52;;;;;;;3.05;2.42;;;;;;;-2.68;100.00;93031.41;2098705;28;20016;-86
2022/04/11 03:45:53;;;;;;;4.03;2.75;;;;;;;-2.72;100.00;93028.72;2098521;28;20032;-82
2022/04/11 03:46:54;;;;;;;4.20;2.70;;;;;;;-2.71;100.00;93032.09;2090300;28;20656;-84
2022/04/11 03:47:55;;;;;;;4.90;4.13;;;;;;;-2.56;100.00;93029.50;2089936;28;20029;-83
2022/04/11 03:48:56;;;;;;;4.25;3.33;;;;;;;-2.64;100.00;93030.41;2090310;28;20485;-86
2022/04/11 03:49:56;;;;;;;4.10;3.58;;;;;;;-2.57;100.00;93033.22;2090460;28;20020;-82
2022/04/11 03:50:57;;;;;;;4.65;3.78;;;;;;;-2.62;100.00;93030.84;2098435;28;20025;-83
2022/04/11 03:51:59;;;;;;;3.47;3.10;;;;;;;-2.66;100.00;93024.00;2106720;28;20020;-82
2022/04/11 03:52:59;;;;;;;4.13;3.15;;;;;;;-2.74;100.00;93033.50;2098517;28;20021;-82
2022/04/11 03:54:00;;;;;;;4.05;3.00;;;;;;;-2.80;100.00;93033.00;2106870;28;20378;-82
2022/04/11 03:55:04;;;;;;;4.45;3.35;;;;;;;-2.79;100.00;93031.16;2098689;28;20024;-85
2022/04/11 03:56:05;;;;;;;4.25;3.28;;;;;;;-2.64;100.00;93035.63;2090398;28;20116;-84
2022/04/11 03:57:06;;;;;;;5.35;2.75;;;;;;;-2.42;100.00;93030.97;2081978;28;20022;-85
2022/04/11 03:58:07;;;;;;;3.88;2.80;;;;;;;-2.46;100.00;93033.47;2090335;28;20021;-84
2022/04/11 03:59:08;;;;;;;4.68;2.95;;;;;;;-2.58;100.00;93038.81;2090253;28;20025;-84
2022/04/11 04:00:10;;;;;;;3.65;2.70;;;;;;;-2.58;100.00;93036.94;2081520;28;20056;-84
2022/04/11 04:01:11;;;;;;;2.78;2.35;;;;;;;-2.44;100.00;93047.00;2082394;28;20022;-86
2022/04/11 04:02:12;;;;;;;2.83;2.38;;;;;;;-2.56;100.00;93044.44;2088838;28;20108;-83
2022/04/11 04:03:17;;;;;;;2.72;2.50;;;;;;;-2.70;100.00;93041.47;2098401;28;20505;-85
2022/04/11 04:04:18;;;;;;;3.35;2.38;;;;;;;-2.75;100.00;93046.94;2090809;28;20028;-85
2022/04/11 04:05:19;;;;;;;2.67;2.38;;;;;;;-2.82;100.00;93045.63;2090159;28;20025;-84
2022/04/11 04:06:20;;;;;;;4.78;2.78;;;;;;;-2.77;100.00;93052.47;2098369;28;20508;-86
2022/04/11 04:07:21;;;;;;;2.83;2.53;;;;;;;-2.94;100.00;93047.53;2098388;28;20024;-84
2022/04/11 04:08:22;;;;;;;4.20;2.50;;;;;;;-2.90;100.00;93054.38;2098462;28;20020;-84
2022/04/11 04:09:22;;;;;;;3.65;2.60;;;;;;;-2.61;100.00;93052.53;2090189;28;20024;-84
2022/04/11 04:10:26;;;;;;;3.72;2.47;;;;;;;-2.80;100.00;93053.94;2098365;28;20469;-83
2022/04/11 04:11:27;;;;;;;3.00;2.47;;;;;;;-2.83;100.00;93053.81;2098669;28;20077;-80
2022/04/11 04:12:28;;;;;;;3.30;2.53;;;;;;;-2.93;100.00;93049.06;2086914;28;20049;-85
2022/04/11 04:13:29;;;;;;;3.15;2.30;;;;;;;-2.95;100.00;93056.47;2097733;28;20093;-83
2022/04/11 04:14:30;;;;;;;3.78;2.78;;;;;;;-3.04;100.00;93054.00;2102126;28;20086;-83
2022/04/11 04:15:31;;;;;;;5.55;2.50;;;;;;;-2.99;100.00;93056.38;2093863;28;20020;-82
2022/04/11 04:16:32;;;;;;;4.93;2.42;;;;;;;-2.94;100.00;93052.75;2089536;28;20527;-84
2022/04/11 04:17:33;;;;;;;4.15;3.08;;;;;;;-2.97;100.00;93048.97;2095852;28;20024;-84
2022/04/11 04:18:34;;;;;;;3.47;2.85;;;;;;;-2.98;100.00;93047.47;2090038;28;20029;-86
2022/04/11 04:19:35;;;;;;;3.78;2.30;;;;;;;-2.92;100.00;93051.34;2090095;28;20025;-82
2022/04/11 04:20:36;;;;;;;3.33;2.35;;;;;;;-2.75;100.00;93055.53;2090032;28;20036;-84
2022/04/11 04:21:37;;;;;;;3.42;2.67;;;;;;;-2.82;100.00;93056.09;2095783;28;21285;-85
2022/04/11 04:22:38;;;;;;;2.45;2.25;;;;;;;-2.82;100.00;93061.31;2094024;28;20016;-84
2022/04/11 04:23:40;;;;;;;2.90;2.60;;;;;;;-2.87;100.00;93060.81;2094256;28;20031;-83
2022/04/11 04:24:41;;;;;;;3.17;2.47;;;;;;;-2.93;100.00;93062.16;2089857;28;20025;-84
2022/04/11 04:25:42;;;;;;;2.92;2.55;;;;;;;-3.12;100.00;93063.47;2092755;28;20500;-83
2022/04/11 04:26:46;;;;;;;2.85;2.50;;;;;;;-3.07;100.00;93063.28;2090127;28;20106;-84
2022/04/11 04:27:47;;;;;;;3.92;2.55;;;;;;;-2.93;100.00;93054.31;2090010;28;20020;-84
2022/04/11 04:28:53;;;;;;;4.90;2.58;;;;;;;-3.00;100.00;93056.72;2083028;28;20034;-85
2022/04/11 04:29:55;;;;;;;4.57;2.30;;;;;;;-3.07;100.00;93058.06;2098496;28;20020;-85
2022/04/11 04:30:58;;;;;;;3.83;2.67;;;;;;;-3.11;100.00;93056.44;2089654;28;20083;-84
2022/04/11 04:32:01;;;;;;;4.20;2.47;;;;;;;-3.00;100.00;93054.84;2089726;28;20123;-83
2022/04/11 04:33:03;;;;;;;2.53;2.30;;;;;;;-2.93;100.00;93055.06;2090107;28;20089;-85
2022/04/11 04:34:03;;;;;;;2.88;2.67;;;;;;;-2.81;100.00;93051.63;2102425;28;20536;-87
2022/04/11 04:35:06;;;;;;;4.25;2.60;;;;;;;-2.82;100.00;93053.47;2098713;28;20028;-84
2022/04/11 04:36:07;;;;;;;3.60;2.67;;;;;;;-2.86;100.00;93060.47;2097202;28;20130;-84
2022/04/11 04:37:09;;;;;;;3.58;2.28;;;;;;;-2.98;100.00;93057.16;2097996;28;20592;-82
2022/04/11 04:38:10;;;;;;;4.10;2.47;;;;;;;-3.02;100.00;93061.53;2089825;28;20055;-85
2022/04/11 04:39:11;;;;;;;3.15;2.40;;;;;;;-3.19;100.00;93052.84;2086853;28;20063;-83
2022/04/11 04:40:12;;;;;;;2.67;2.38;;;;;;;-3.15;100.00;93058.19;2097534;28;20021;-84
2022/04/11 04:41:13;;;;;;;5.07;2.60;;;;;;;-3.19;100.00;93058.06;2097035;28;20021;-83
2022/04/11 04:42:23;;;;;;;3.10;2.60;;;;;;;-3.20;100.00;93058.41;2096995;28;20028;-82
2022/04/11 04:43:24;;;;;;;2.67;2.40;;;;;;;-3.17;100.00;93053.25;2091314;28;20032;-81
2022/04/11 04:44:25;;;;;;;4.05;2.60;;;;;;;-3.24;100.00;93052.31;2097105;28;20021;-81
2022/04/11 04:45:26;;;;;;;3.22;2.63;;;;;;;-3.24;100.00;93047.84;2096915;28;20145;-86
2022/04/11 04:46:27;;;;;;;3.97;2.55;;;;;;;-3.19;100.00;93041.63;2097299;28;20020;-82
2022/04/11 04:47:28;;;;;;;2.83;2.58;;;;;;;-3.28;100.00;93047.00;2098031;28;20029;-83